Terminal Aerodrome Forecast
Issued by NWS

Home | Current Version | Previous Version | Text Only | Print | Product List | Glossary On
Versions: 1 2 3 4 5 6 7 8 9 10 11 12 13 14 15 16 17 18 19
145
FTUS43 KLSX 011723
TAFSUS
TAF
KSUS 011723Z 0118/0218 30007KT P6SM VCSH SCT015 BKN030
     FM020100 VRB03KT P6SM BKN035
     FM020100 VRB04KT P6SM BKN035
     FM021500 32004KT P6SM BKN025=

USA.gov is the U.S. government's official web portal to all federal, state and local government web resources and services.